Indiana, PA

4:39 PM EDT on September 02, 2015 (GMT -0400)
Edgewood | | Change Station
CLOSE
Current Station
Personal Weather Station
Location: Indiana, PA
Elevation: 1194 ft
Nearby Weather Stations

Elev 1194 ft 40.58 °N, 79.22 °W | Updated 35 seconds ago

Mostly Cloudy
Mostly Cloudy
89.7 °F
Feels Like 94 °F
N
0.0
Wind Variable Wind from SSW
Gusts 4.0 mph

Today
High -- | Low -- °F
--% Chance of Precip.
Yesterday
High -- | Low -- °F
Precip. -- in
6:44 AM 7:47 PM
Waning Gibbous, 77% visible
Pressure 30.07 in
Visibility 5.0 miles
Clouds Few 5000 ft
Few 6000 ft
Scattered Clouds 7000 ft
Heat Index 94 °F
Dew Point 69 °F
Humidity 51%
Rainfall 0.00 in
Snow Depth Not available.
UV 4 out of 12
Pollen 10.00 out of 12
Air Quality Not available.
Flu Activity Not available.
METAR KIDI 022015Z AUTO 01005G14KT 5SM HZ FEW050 FEW060 SCT070 26/22 A3007 RMK A01
Pressure 30.07 in
Visibility 5.0 miles
Clouds Few 5000 ft
Few 6000 ft
Scattered Clouds 7000 ft
Heat Index 94 °F
Dew Point 69 °F
Humidity 51%
Rainfall 0.00 in
Snow Depth Not available.
UV 4 out of 12
Pollen 10.00 out of 12
Air Quality Not available.
Flu Activity Not available.
METAR KIDI 022015Z AUTO 01005G14KT 5SM HZ FEW050 FEW060 SCT070 26/22 A3007 RMK A01

10-Day Weather Forecast

×

Almanac

Astronomy

Sep. 02, 2015 Rise Set
Actual Time
Civil Twilight
Nautical Twilight
Astronomical Twilight
Moon
Length of Visible Light
Length of Day
Tomorrow will be .
, % of the Moon is Illuminated

Today's Extremes

State Highs State Lows

Community

WunderPhotos

Upload Photos

1,851,806 photos uploaded!

WunderBlogs® & News

Nearby

Air Quality

  Air Quality AQ Index Pollutant
Not available.

Snow Depth

Station Depth Elevation

Earthquake Activity

City Distance Mag. Time & Date
Minimum magnitude displayed is 2.5.

Coastal Water Temperatures

Place Temperature

Stations

Nearby Weather Stations

Station Location Temp. Windchill Dew Point Humidity Wind Precip. Elev Updated Type